Time;durP1;ratioP1;P1;durP2;ratioP2;P2;SDS_P1;SDS_P2;PMS_P1;PMS_P2;Temp;Humidity;BMP_temperature;BMP_pressure;BME280_temperature;BME280_humidity;BME280_pressure;Samples;Min_cycle;Max_cycle;Signal;HPM_P1;HPM_P2
2023/09/15 00:00:42;;;;;;;22.92;11.73;;;13.60;92.30;;;;;;5030311;28;20025;-84
2023/09/15 00:03:08;;;;;;;27.05;12.68;;;13.60;92.40;;;;;;5041803;28;20028;-85
2023/09/15 00:05:34;;;;;;;25.92;13.02;;;13.50;92.50;;;;;;5036095;28;20058;-84
2023/09/15 00:08:04;;;;;;;21.88;12.50;;;13.50;92.70;;;;;;5031045;28;20109;-84
2023/09/15 00:10:40;;;;;;;23.88;13.73;;;13.50;92.90;;;;;;5018571;28;20382;-84
2023/09/15 00:13:06;;;;;;;24.98;13.65;;;13.50;93.00;;;;;;5031793;28;20033;-83
2023/09/15 00:15:32;;;;;;;23.05;12.65;;;13.40;93.10;;;;;;5034977;28;20026;-84
2023/09/15 00:17:59;;;;;;;16.33;12.32;;;13.40;93.20;;;;;;5038765;28;20025;-84
2023/09/15 00:20:25;;;;;;;23.27;13.13;;;13.40;93.40;;;;;;5039549;28;20430;-84
2023/09/15 00:22:53;;;;;;;19.02;13.65;;;13.40;93.40;;;;;;5035808;28;20352;-84
2023/09/15 00:25:25;;;;;;;26.67;13.68;;;13.40;93.50;;;;;;5017672;28;20037;-83
2023/09/15 00:27:54;;;;;;;23.08;13.65;;;13.30;93.40;;;;;;5010011;28;20521;-84
2023/09/15 00:30:22;;;;;;;24.58;13.52;;;13.30;93.30;;;;;;5041247;28;20565;-84
2023/09/15 00:32:49;;;;;;;28.55;14.23;;;13.30;93.40;;;;;;5021690;28;20026;-85
2023/09/15 00:35:16;;;;;;;25.63;13.02;;;13.30;93.60;;;;;;5024646;28;20411;-83
2023/09/15 00:37:43;;;;;;;23.60;11.77;;;13.20;93.60;;;;;;5028062;28;20380;-84
2023/09/15 00:40:10;;;;;;;22.00;13.98;;;13.20;93.70;;;;;;5034491;28;20021;-85
2023/09/15 00:42:37;;;;;;;21.13;12.18;;;13.20;93.80;;;;;;5034836;28;20017;-85
2023/09/15 00:45:09;;;;;;;20.33;12.60;;;13.20;93.90;;;;;;5034729;28;20037;-85
2023/09/15 00:47:35;;;;;;;26.88;15.32;;;13.10;93.90;;;;;;5034945;28;20017;-85
2023/09/15 00:50:05;;;;;;;28.50;15.63;;;13.10;94.10;;;;;;5035159;28;20493;-85
2023/09/15 00:52:33;;;;;;;32.30;13.63;;;13.10;94.00;;;;;;5034766;28;20033;-84
2023/09/15 00:55:00;;;;;;;21.60;13.32;;;13.10;94.00;;;;;;5037752;28;20056;-85
2023/09/15 00:57:27;;;;;;;16.73;14.02;;;13.10;94.10;;;;;;5041015;28;20032;-85
2023/09/15 00:59:53;;;;;;;25.47;14.00;;;13.10;94.20;;;;;;5037793;28;20029;-85
2023/09/15 01:02:20;;;;;;;28.83;14.38;;;13.00;94.20;;;;;;5039767;28;20270;-84
2023/09/15 01:04:46;;;;;;;31.33;14.40;;;13.00;94.30;;;;;;5035653;28;20034;-84
2023/09/15 01:07:13;;;;;;;27.23;14.73;;;13.00;94.40;;;;;;5016828;28;20022;-85
2023/09/15 01:09:41;;;;;;;21.45;14.65;;;13.00;94.40;;;;;;5033879;28;20652;-84
2023/09/15 01:12:08;;;;;;;20.73;13.70;;;13.00;94.30;;;;;;5015922;28;20033;-85
2023/09/15 01:14:35;;;;;;;26.88;14.75;;;13.00;94.50;;;;;;5033960;28;20017;-85
2023/09/15 01:17:16;;;;;;;25.23;14.18;;;13.00;94.60;;;;;;5016152;28;20433;-85
2023/09/15 01:19:56;;;;;;;26.55;15.32;;;13.00;94.60;;;;;;5034970;28;20038;-84
2023/09/15 01:22:34;;;;;;;22.80;15.90;;;12.90;94.70;;;;;;5033978;28;20026;-85
2023/09/15 01:25:35;;;;;;;25.65;15.55;;;12.90;94.60;;;;;;5033089;28;20033;-85
2023/09/15 01:28:41;;;;;;;27.83;15.98;;;12.90;94.60;;;;;;4952907;28;20027;-84
2023/09/15 01:31:09;;;;;;;18.50;14.23;;;12.90;94.60;;;;;;5031921;28;20026;-84
2023/09/15 01:33:37;;;;;;;21.00;15.27;;;12.90;94.70;;;;;;5014558;28;20026;-84
2023/09/15 01:36:03;;;;;;;25.55;15.85;;;12.80;94.70;;;;;;5026378;28;20042;-84
2023/09/15 01:38:31;;;;;;;24.98;16.45;;;12.80;94.80;;;;;;5013208;28;20033;-85
2023/09/15 01:40:57;;;;;;;22.90;15.90;;;12.90;94.80;;;;;;5023424;28;20029;-85
2023/09/15 01:43:23;;;;;;;26.10;16.35;;;12.80;94.70;;;;;;5034428;28;20026;-85
2023/09/15 01:45:48;;;;;;;20.25;15.35;;;12.80;94.70;;;;;;5040626;28;20043;-85
2023/09/15 01:48:16;;;;;;;24.23;15.18;;;12.80;94.80;;;;;;5022309;28;20026;-85
2023/09/15 01:50:42;;;;;;;24.90;16.20;;;12.80;94.80;;;;;;5049111;28;20034;-84
2023/09/15 01:53:08;;;;;;;22.70;15.68;;;12.80;94.90;;;;;;5021492;28;20033;-86
2023/09/15 01:55:36;;;;;;;28.05;16.40;;;12.80;94.90;;;;;;5020829;28;20375;-84
2023/09/15 01:58:02;;;;;;;27.10;15.55;;;12.90;94.90;;;;;;5033238;28;20109;-82
2023/09/15 02:00:37;;;;;;;27.73;15.30;;;12.90;94.80;;;;;;5031812;28;20055;-84
2023/09/15 02:03:04;;;;;;;22.48;15.95;;;12.90;94.80;;;;;;5019514;28;20391;-85
2023/09/15 02:05:30;;;;;;;25.00;15.82;;;12.90;94.70;;;;;;5034424;28;20113;-85
2023/09/15 02:07:57;;;;;;;24.85;16.10;;;12.90;94.70;;;;;;5052162;28;20537;-84
2023/09/15 02:10:23;;;;;;;22.10;15.23;;;12.90;94.60;;;;;;5052164;28;20107;-84
2023/09/15 02:12:49;;;;;;;24.45;14.98;;;12.90;94.80;;;;;;5047128;28;20044;-85
2023/09/15 02:15:15;;;;;;;25.23;15.73;;;12.90;94.70;;;;;;5032930;28;20113;-85
2023/09/15 02:17:42;;;;;;;18.55;15.57;;;12.90;94.70;;;;;;5033105;28;20116;-85
2023/09/15 02:20:18;;;;;;;21.37;15.03;;;13.00;94.70;;;;;;5039406;28;20013;-85
2023/09/15 02:22:44;;;;;;;24.08;15.88;;;12.90;94.70;;;;;;5038495;28;20029;-84
2023/09/15 02:25:10;;;;;;;22.70;15.07;;;13.00;94.70;;;;;;5039800;28;20037;-83
2023/09/15 02:27:37;;;;;;;19.00;14.95;;;13.00;94.70;;;;;;5033017;28;20091;-84
2023/09/15 02:30:07;;;;;;;20.38;15.65;;;13.00;94.70;;;;;;5032696;28;20020;-86
2023/09/15 02:32:33;;;;;;;19.67;15.05;;;12.90;94.70;;;;;;5033025;28;20056;-85
2023/09/15 02:34:59;;;;;;;22.02;15.13;;;13.00;94.60;;;;;;5018189;28;20022;-86
2023/09/15 02:37:25;;;;;;;24.77;15.80;;;13.00;94.70;;;;;;5021599;28;20128;-85
2023/09/15 02:39:51;;;;;;;24.67;15.20;;;13.00;94.80;;;;;;5012059;28;20058;-85
2023/09/15 02:42:16;;;;;;;26.45;16.02;;;13.00;94.60;;;;;;5032330;28;20148;-85
2023/09/15 02:44:43;;;;;;;28.58;15.00;;;12.90;94.50;;;;;;5031975;28;20103;-85
2023/09/15 02:47:08;;;;;;;20.05;13.40;;;13.00;94.60;;;;;;5031857;28;20093;-86
2023/09/15 02:49:34;;;;;;;20.17;13.15;;;13.00;94.50;;;;;;5032247;28;20030;-85
2023/09/15 02:52:01;;;;;;;24.25;14.50;;;13.00;94.40;;;;;;5032237;28;20057;-84
2023/09/15 02:54:28;;;;;;;28.00;14.77;;;13.00;94.60;;;;;;5032111;28;20022;-85
2023/09/15 02:56:54;;;;;;;24.50;15.40;;;13.00;94.70;;;;;;5032045;28;20029;-85
2023/09/15 02:59:20;;;;;;;19.85;13.82;;;13.00;94.60;;;;;;5018410;28;20422;-85
2023/09/15 03:01:46;;;;;;;25.50;14.95;;;13.00;94.50;;;;;;5032115;28;20017;-85
2023/09/15 03:04:11;;;;;;;24.25;14.88;;;13.10;94.50;;;;;;5032029;28;20390;-86
2023/09/15 03:06:39;;;;;;;21.08;14.85;;;13.10;94.40;;;;;;5032776;28;20458;-86
2023/09/15 03:09:08;;;;;;;21.30;15.05;;;13.10;94.40;;;;;;5047818;28;20031;-86
2023/09/15 03:11:33;;;;;;;23.13;15.23;;;13.20;94.40;;;;;;5024751;28;20018;-86
2023/09/15 03:13:59;;;;;;;23.25;14.00;;;13.20;94.40;;;;;;5025107;28;20029;-86
2023/09/15 03:16:26;;;;;;;28.08;15.55;;;13.20;94.40;;;;;;5015005;28;20022;-85
2023/09/15 03:18:52;;;;;;;19.65;13.60;;;13.20;94.40;;;;;;5015935;28;20021;-85
2023/09/15 03:21:19;;;;;;;16.02;13.48;;;13.20;94.30;;;;;;5044757;28;20627;-84
2023/09/15 03:23:49;;;;;;;21.17;14.70;;;13.20;94.10;;;;;;5051648;28;20033;-84
2023/09/15 03:26:14;;;;;;;20.90;14.20;;;13.20;94.20;;;;;;5032482;28;20061;-83
2023/09/15 03:28:40;;;;;;;23.70;14.52;;;13.30;94.20;;;;;;5008292;28;20060;-84
2023/09/15 03:31:06;;;;;;;26.55;15.18;;;13.30;94.20;;;;;;5032004;28;20033;-84
2023/09/15 03:33:32;;;;;;;19.08;13.90;;;13.30;94.20;;;;;;5031856;28;20414;-84
2023/09/15 03:35:58;;;;;;;18.48;14.18;;;13.40;94.10;;;;;;5035307;28;20175;-84
2023/09/15 03:38:24;;;;;;;29.67;14.70;;;13.40;94.20;;;;;;5021995;28;20021;-83
2023/09/15 03:40:50;;;;;;;26.77;14.52;;;13.50;94.10;;;;;;5046227;28;20021;-84
2023/09/15 03:43:16;;;;;;;23.80;14.70;;;13.50;93.80;;;;;;5026385;28;20033;-84
2023/09/15 03:45:47;;;;;;;27.23;14.20;;;13.60;93.80;;;;;;5024899;28;20383;-84
2023/09/15 03:48:13;;;;;;;22.65;14.43;;;13.70;93.70;;;;;;5037984;28;20022;-86
2023/09/15 03:50:39;;;;;;;24.20;13.38;;;13.70;93.60;;;;;;5054917;28;20068;-84
2023/09/15 03:53:05;;;;;;;25.65;14.50;;;13.80;93.50;;;;;;5039460;28;20055;-83
2023/09/15 03:55:31;;;;;;;26.15;14.93;;;13.80;93.30;;;;;;5031710;28;20033;-84
2023/09/15 03:57:57;;;;;;;19.23;14.00;;;13.80;93.40;;;;;;5029461;28;20108;-84
2023/09/15 04:00:23;;;;;;;28.25;21.77;;;13.80;93.20;;;;;;5028097;28;20033;-85
2023/09/15 04:02:49;;;;;;;29.23;15.43;;;13.90;93.30;;;;;;5040172;28;20079;-86
2023/09/15 04:05:18;;;;;;;25.50;13.82;;;13.90;93.20;;;;;;5027573;28;20129;-85
2023/09/15 04:07:44;;;;;;;22.88;14.02;;;14.00;93.10;;;;;;5035206;28;20029;-82
2023/09/15 04:10:10;;;;;;;31.80;14.98;;;14.10;93.00;;;;;;5044002;28;20026;-84
2023/09/15 04:12:36;;;;;;;19.75;14.18;;;14.20;92.70;;;;;;5036195;28;20036;-84
2023/09/15 04:15:01;;;;;;;24.85;14.90;;;14.30;92.20;;;;;;5035979;28;20108;-83
2023/09/15 04:17:27;;;;;;;29.98;15.10;;;14.30;92.10;;;;;;5018359;28;20076;-83
2023/09/15 04:19:53;;;;;;;23.10;14.50;;;14.30;92.00;;;;;;5034828;28;20049;-85
2023/09/15 04:22:21;;;;;;;25.13;14.32;;;14.30;91.80;;;;;;5046768;28;20485;-85
2023/09/15 04:24:47;;;;;;;23.58;14.70;;;14.20;91.80;;;;;;5027285;28;20079;-86
2023/09/15 04:27:13;;;;;;;24.92;14.85;;;14.20;91.80;;;;;;5047213;28;20032;-87
2023/09/15 04:29:56;;;;;;;16.52;13.82;;;14.20;92.00;;;;;;5035363;28;20018;-86
2023/09/15 04:32:22;;;;;;;26.08;13.95;;;14.10;91.80;;;;;;5017512;28;20025;-86
2023/09/15 04:34:50;;;;;;;24.90;14.13;;;14.10;92.00;;;;;;5021559;28;20098;-86
2023/09/15 04:37:16;;;;;;;29.33;15.57;;;14.10;91.90;;;;;;5010192;28;20447;-86
2023/09/15 04:39:42;;;;;;;29.95;16.08;;;14.10;91.90;;;;;;5030514;28;20029;-86
2023/09/15 04:42:09;;;;;;;23.30;14.25;;;14.10;92.00;;;;;;5020855;28;20025;-86
2023/09/15 04:44:35;;;;;;;20.27;15.75;;;14.10;91.80;;;;;;5037977;28;20094;-85
2023/09/15 04:47:01;;;;;;;27.88;19.17;;;14.20;91.80;;;;;;5025241;28;20029;-85
2023/09/15 04:49:27;;;;;;;27.40;16.30;;;14.20;91.90;;;;;;5046266;28;20088;-85
2023/09/15 04:51:53;;;;;;;24.92;15.45;;;14.20;92.00;;;;;;5055347;28;20041;-86
2023/09/15 04:54:19;;;;;;;37.80;22.38;;;14.30;91.80;;;;;;5039051;28;20029;-86
2023/09/15 04:56:45;;;;;;;24.63;16.13;;;14.30;91.70;;;;;;5049746;28;20021;-84
2023/09/15 04:59:15;;;;;;;20.00;13.57;;;14.40;91.70;;;;;;5033827;28;20097;-88
2023/09/15 05:01:45;;;;;;;23.52;15.18;;;14.30;91.40;;;;;;5050677;28;20108;-84
2023/09/15 05:04:14;;;;;;;20.90;15.32;;;14.30;91.30;;;;;;5055125;28;20089;-84
2023/09/15 05:06:40;;;;;;;23.90;15.27;;;14.30;91.50;;;;;;5017363;28;20519;-86
2023/09/15 05:09:09;;;;;;;23.70;14.95;;;14.30;91.60;;;;;;5012223;28;20498;-87
2023/09/15 05:11:35;;;;;;;28.65;16.08;;;14.30;91.30;;;;;;5041761;28;20366;-85
2023/09/15 05:14:01;;;;;;;22.20;15.27;;;14.30;91.40;;;;;;5042757;28;20057;-84
2023/09/15 05:16:28;;;;;;;23.17;15.27;;;14.30;91.50;;;;;;5016697;28;20542;-84
2023/09/15 05:18:53;;;;;;;20.65;15.27;;;14.30;91.50;;;;;;5031722;28;20043;-84
2023/09/15 05:21:23;;;;;;;22.60;15.30;;;14.30;91.30;;;;;;5048270;28;20096;-88
2023/09/15 05:23:49;;;;;;;26.63;16.02;;;14.30;91.20;;;;;;5031962;28;20030;-86
2023/09/15 05:26:14;;;;;;;21.42;16.70;;;14.30;91.20;;;;;;5034469;28;20049;-84
2023/09/15 05:28:40;;;;;;;23.30;16.38;;;14.30;91.20;;;;;;5027794;28;20414;-85
2023/09/15 05:31:07;;;;;;;25.55;16.17;;;14.40;91.30;;;;;;5015860;28;20101;-85
2023/09/15 05:33:33;;;;;;;31.85;18.40;;;14.40;91.30;;;;;;5013930;28;20022;-85
2023/09/15 05:35:59;;;;;;;25.95;16.23;;;14.40;91.40;;;;;;5014136;28;20092;-84
2023/09/15 05:38:26;;;;;;;28.25;17.65;;;14.50;91.50;;;;;;4996660;28;20395;-87
2023/09/15 05:40:52;;;;;;;30.67;17.90;;;14.60;91.50;;;;;;5017588;28;20080;-86
2023/09/15 05:43:19;;;;;;;70.68;21.05;;;14.60;91.20;;;;;;5003183;28;20407;-86
2023/09/15 05:45:45;;;;;;;34.20;18.35;;;14.70;91.20;;;;;;5017729;28;20038;-86
2023/09/15 05:48:17;;;;;;;34.55;17.55;;;14.80;91.00;;;;;;5010072;28;20028;-86
2023/09/15 05:50:44;;;;;;;130.65;25.38;;;14.90;91.00;;;;;;5027736;28;20021;-85
2023/09/15 05:53:10;;;;;;;33.35;19.35;;;15.00;91.00;;;;;;5016819;28;20014;-86
2023/09/15 05:55:39;;;;;;;26.65;16.58;;;15.10;90.70;;;;;;5021370;28;20022;-84
2023/09/15 05:58:04;;;;;;;26.80;16.38;;;15.20;90.60;;;;;;5028681;28;20018;-83
2023/09/15 06:00:30;;;;;;;25.88;16.80;;;15.20;90.10;;;;;;5034860;28;20121;-84
2023/09/15 06:02:56;;;;;;;36.38;18.02;;;15.30;89.60;;;;;;5013714;28;20033;-86
2023/09/15 06:05:24;;;;;;;42.35;19.15;;;15.30;89.40;;;;;;4997689;28;20041;-85
2023/09/15 06:07:51;;;;;;;32.80;16.38;;;15.30;89.40;;;;;;5014510;28;20018;-88
2023/09/15 06:10:18;;;;;;;33.50;18.02;;;15.50;88.60;;;;;;5004521;28;20033;-86
2023/09/15 06:12:44;;;;;;;28.95;17.38;;;15.50;88.10;;;;;;5018779;28;20034;-86
2023/09/15 06:15:10;;;;;;;29.80;16.23;;;15.70;88.00;;;;;;5023243;28;20385;-85
2023/09/15 06:17:36;;;;;;;26.08;17.35;;;15.80;87.00;;;;;;5014625;28;20018;-83
2023/09/15 06:20:04;;;;;;;33.70;17.35;;;15.90;86.50;;;;;;5000821;28;20029;-84
2023/09/15 06:22:30;;;;;;;32.75;19.08;;;16.00;85.80;;;;;;5028238;28;20096;-83
2023/09/15 06:24:56;;;;;;;25.42;16.70;;;16.20;85.70;;;;;;5026846;28;20818;-84
2023/09/15 06:27:22;;;;;;;27.98;17.38;;;16.30;84.90;;;;;;5025781;28;20079;-84
2023/09/15 06:29:48;;;;;;;29.10;16.85;;;16.40;84.20;;;;;;5032923;28;20029;-82
2023/09/15 06:32:14;;;;;;;43.70;16.48;;;16.50;84.00;;;;;;5036195;28;20026;-84
2023/09/15 06:34:40;;;;;;;26.63;17.73;;;16.60;83.40;;;;;;5015239;28;20372;-83
2023/09/15 06:37:06;;;;;;;29.17;17.30;;;16.70;83.20;;;;;;5026003;28;20061;-84
2023/09/15 06:39:35;;;;;;;20.98;14.77;;;16.80;82.50;;;;;;5023283;28;20037;-85
2023/09/15 06:42:04;;;;;;;23.77;14.18;;;16.90;81.60;;;;;;5026235;28;20494;-84
2023/09/15 06:44:33;;;;;;;22.40;14.00;;;17.10;80.60;;;;;;5028288;28;20022;-83
2023/09/15 06:46:59;;;;;;;25.75;14.23;;;17.20;79.70;;;;;;5023929;28;20064;-85
2023/09/15 06:49:25;;;;;;;24.08;12.88;;;17.50;79.60;;;;;;5014484;28;20067;-84
2023/09/15 06:51:51;;;;;;;16.47;10.43;;;17.70;77.60;;;;;;5025558;28;20374;-83
2023/09/15 06:54:17;;;;;;;9.55;7.95;;;17.90;76.40;;;;;;5034322;28;20264;-81
2023/09/15 06:56:43;;;;;;;21.45;10.45;;;18.20;73.80;;;;;;5020762;28;20065;-83
2023/09/15 06:59:08;;;;;;;18.75;11.48;;;18.40;73.60;;;;;;5023717;28;20489;-84
2023/09/15 07:01:34;;;;;;;20.13;11.15;;;18.80;73.30;;;;;;5023089;28;20121;-86
2023/09/15 07:04:00;;;;;;;16.88;11.50;;;19.30;72.40;;;;;;5026525;28;20038;-88
2023/09/15 07:06:26;;;;;;;15.48;11.55;;;20.10;71.40;;;;;;5031944;28;20901;-88
2023/09/15 07:08:53;;;;;;;22.13;12.38;;;21.60;67.90;;;;;;5026174;28;20025;-86
2023/09/15 07:11:19;;;;;;;16.65;10.63;;;23.00;64.10;;;;;;5020735;28;20022;-86
2023/09/15 07:13:44;;;;;;;17.73;11.50;;;24.00;59.60;;;;;;5019079;28;20045;-86
2023/09/15 07:16:10;;;;;;;21.02;11.55;;;24.70;57.80;;;;;;5034659;28;20021;-85
2023/09/15 07:18:37;;;;;;;16.75;8.75;;;25.00;55.50;;;;;;5036455;28;20057;-85
2023/09/15 07:21:02;;;;;;;16.53;9.13;;;24.80;54.30;;;;;;5036336;28;20022;-85
2023/09/15 07:23:31;;;;;;;15.27;8.82;;;24.50;54.80;;;;;;5031756;28;20467;-84
2023/09/15 07:25:57;;;;;;;10.75;6.95;;;24.30;54.80;;;;;;5026489;28;20034;-83
2023/09/15 07:28:23;;;;;;;12.85;7.25;;;24.30;54.30;;;;;;5028454;28;20036;-85
2023/09/15 07:30:49;;;;;;;8.57;6.07;;;24.60;54.50;;;;;;5035961;28;20030;-82
2023/09/15 07:33:15;;;;;;;7.50;5.32;;;24.90;53.00;;;;;;5020469;28;20032;-84
2023/09/15 07:35:41;;;;;;;8.98;5.25;;;25.10;52.40;;;;;;5016029;28;20474;-83
2023/09/15 07:38:07;;;;;;;8.90;5.50;;;24.80;51.80;;;;;;5023303;28;20045;-81
2023/09/15 07:40:34;;;;;;;6.45;5.13;;;24.30;52.40;;;;;;5015426;28;20183;-85
2023/09/15 07:43:00;;;;;;;6.13;4.88;;;23.80;53.40;;;;;;5034127;28;20097;-84
2023/09/15 07:45:27;;;;;;;4.75;4.35;;;23.20;53.40;;;;;;5028987;28;20034;-84
2023/09/15 07:47:52;;;;;;;6.18;4.82;;;22.40;54.60;;;;;;5046359;28;20053;-85
2023/09/15 07:50:18;;;;;;;6.22;4.63;;;21.80;56.40;;;;;;5045703;28;20022;-86
2023/09/15 07:52:46;;;;;;;9.02;5.78;;;21.60;57.40;;;;;;5021874;28;20025;-82
2023/09/15 07:55:16;;;;;;;13.00;6.82;;;21.80;57.50;;;;;;5007448;28;20081;-84
2023/09/15 07:57:41;;;;;;;11.07;5.57;;;22.30;57.50;;;;;;5029119;28;20021;-82
2023/09/15 08:00:10;;;;;;;12.50;5.35;;;23.20;55.80;;;;;;5033250;28;20032;-84
2023/09/15 08:02:36;;;;;;;11.13;6.40;;;23.80;53.60;;;;;;5038015;28;20021;-82
2023/09/15 08:05:04;;;;;;;7.63;5.97;;;24.10;53.40;;;;;;5033754;28;20063;-86
2023/09/15 08:07:30;;;;;;;8.77;4.22;;;24.70;51.90;;;;;;5013627;28;20274;-85
2023/09/15 08:09:56;;;;;;;4.38;3.97;;;25.90;50.10;;;;;;5023262;28;20114;-84
2023/09/15 08:12:23;;;;;;;6.37;5.00;;;27.00;47.40;;;;;;5032313;28;20028;-85
2023/09/15 08:14:49;;;;;;;5.68;4.07;;;27.70;46.10;;;;;;5033189;28;20034;-83
2023/09/15 08:17:16;;;;;;;6.85;5.35;;;28.20;44.10;;;;;;5009235;28;20067;-86
2023/09/15 08:19:42;;;;;;;11.95;5.00;;;27.90;44.40;;;;;;5019731;28;20040;-90
2023/09/15 08:22:08;;;;;;;11.50;4.57;;;28.00;44.50;;;;;;5007827;28;20077;-84
2023/09/15 08:24:34;;;;;;;6.18;5.00;;;27.90;44.20;;;;;;5030124;28;20502;-82
2023/09/15 08:27:00;;;;;;;13.35;5.90;;;27.50;44.20;;;;;;5023014;28;20027;-85
2023/09/15 08:29:26;;;;;;;6.10;5.50;;;26.50;45.50;;;;;;5012718;28;20040;-86
2023/09/15 08:31:55;;;;;;;11.48;6.40;;;25.50;46.70;;;;;;5013431;28;20029;-85
2023/09/15 08:34:21;;;;;;;9.88;5.00;;;25.10;48.10;;;;;;5010326;28;20438;-83
2023/09/15 08:36:47;;;;;;;12.27;7.10;;;25.20;48.10;;;;;;5008574;28;20050;-82
2023/09/15 08:39:14;;;;;;;6.50;4.32;;;25.70;47.90;;;;;;5018977;28;20057;-83
2023/09/15 08:41:47;;;;;;;11.60;4.95;;;26.50;46.90;;;;;;5012151;28;20018;-84
2023/09/15 08:44:16;;;;;;;9.50;4.75;;;27.30;46.10;;;;;;5009886;28;20039;-82
2023/09/15 08:46:43;;;;;;;12.63;7.45;;;28.30;45.00;;;;;;5005603;28;20063;-83
2023/09/15 08:49:09;;;;;;;;;;;29.10;43.90;;;;;;5019580;28;20108;-82
2023/09/15 08:51:41;;;;;;;8.83;4.20;;;28.70;44.10;;;;;;5023242;28;19924;-82
2023/09/15 08:54:07;;;;;;;8.80;4.85;;;27.70;44.20;;;;;;5025783;28;20548;-83
2023/09/15 08:56:33;;;;;;;9.70;4.00;;;27.50;45.40;;;;;;5014777;28;20017;-83
2023/09/15 08:59:00;;;;;;;6.53;4.73;;;27.70;44.10;;;;;;5015035;28;20475;-84
2023/09/15 09:01:26;;;;;;;10.52;4.57;;;27.50;45.40;;;;;;5003786;28;20017;-82
2023/09/15 09:03:52;;;;;;;7.55;5.22;;;27.40;45.10;;;;;;5016111;28;20048;-84
2023/09/15 09:06:20;;;;;;;11.13;6.25;;;27.50;45.00;;;;;;5015237;28;20022;-84
2023/09/15 09:08:46;;;;;;;10.40;4.97;;;27.50;45.10;;;;;;5008223;28;20113;-84
2023/09/15 09:11:13;;;;;;;9.23;4.97;;;27.60;44.90;;;;;;5053242;28;20021;-82
2023/09/15 09:13:39;;;;;;;6.38;4.97;;;27.50;44.60;;;;;;5035136;28;20024;-83
2023/09/15 09:16:07;;;;;;;5.95;4.68;;;27.40;45.00;;;;;;5013940;28;20033;-83
2023/09/15 09:18:34;;;;;;;7.10;4.57;;;27.40;44.30;;;;;;5015781;28;20121;-82
2023/09/15 09:21:04;;;;;;;8.35;4.68;;;27.00;45.40;;;;;;5027991;28;20430;-83
2023/09/15 09:23:31;;;;;;;8.35;4.72;;;27.70;45.30;;;;;;5022975;28;20069;-83
2023/09/15 09:26:00;;;;;;;6.95;5.10;;;28.70;43.70;;;;;;5017382;28;20073;-83
2023/09/15 09:28:28;;;;;;;7.22;5.13;;;28.80;43.00;;;;;;5023841;28;20108;-82
2023/09/15 09:30:55;;;;;;;5.93;4.50;;;28.80;42.90;;;;;;5008443;28;20029;-85
2023/09/15 09:33:22;;;;;;;5.10;4.57;;;28.50;42.60;;;;;;5025752;28;20467;-83
2023/09/15 09:35:49;;;;;;;7.90;5.00;;;27.70;43.30;;;;;;5020984;28;20395;-82
2023/09/15 09:38:15;;;;;;;7.05;4.22;;;27.30;44.90;;;;;;5014087;28;20549;-83
2023/09/15 09:40:41;;;;;;;8.85;5.55;;;27.30;44.90;;;;;;5031763;28;20033;-84
2023/09/15 09:43:08;;;;;;;6.78;4.28;;;27.70;45.00;;;;;;5025854;28;20022;-84
2023/09/15 09:45:34;;;;;;;12.52;5.18;;;28.20;43.70;;;;;;5034722;28;20044;-84
2023/09/15 09:48:02;;;;;;;7.95;4.47;;;27.80;43.80;;;;;;5012384;28;20048;-88
2023/09/15 09:50:28;;;;;;;7.95;4.40;;;26.90;43.50;;;;;;5002732;28;20402;-86
2023/09/15 09:52:54;;;;;;;4.97;4.35;;;25.70;45.40;;;;;;5030868;28;20025;-86
2023/09/15 09:55:21;;;;;;;4.60;3.85;;;24.70;46.30;;;;;;5007271;28;20529;-87
2023/09/15 09:57:48;;;;;;;7.28;4.70;;;24.00;47.50;;;;;;5027307;28;20037;-84
2023/09/15 10:00:19;;;;;;;6.93;5.45;;;23.50;48.80;;;;;;5022769;28;20026;-86
2023/09/15 10:02:45;;;;;;;6.43;4.53;;;23.40;49.10;;;;;;5017289;28;20026;-82
2023/09/15 10:05:11;;;;;;;4.10;3.13;;;23.20;48.90;;;;;;5017521;28;20044;-85
2023/09/15 10:07:37;;;;;;;5.60;4.53;;;23.00;48.00;;;;;;5030931;28;20073;-85
2023/09/15 10:10:06;;;;;;;4.20;3.80;;;22.90;49.30;;;;;;5031460;28;20493;-87
2023/09/15 10:12:33;;;;;;;6.10;4.10;;;22.90;48.60;;;;;;5013585;28;20036;-85
2023/09/15 10:15:00;;;;;;;4.75;4.32;;;23.00;48.80;;;;;;5009362;28;20029;-83
2023/09/15 10:17:27;;;;;;;9.32;4.90;;;23.10;48.90;;;;;;5023589;28;20021;-83
2023/09/15 10:19:53;;;;;;;6.25;4.35;;;23.30;49.20;;;;;;5026318;28;20022;-82
2023/09/15 10:22:20;;;;;;;5.17;4.30;;;23.50;48.90;;;;;;5019933;28;20038;-82
2023/09/15 10:24:59;;;;;;;4.38;3.97;;;23.70;48.80;;;;;;5005243;28;20294;-84
2023/09/15 10:27:27;;;;;;;9.10;4.05;;;23.40;49.00;;;;;;5017617;28;20022;-85
2023/09/15 10:30:06;;;;;;;4.18;3.58;;;23.20;49.50;;;;;;5016927;28;20026;-86
2023/09/15 10:32:40;;;;;;;4.65;3.70;;;22.70;50.20;;;;;;5015278;28;20022;-84
2023/09/15 10:35:07;;;;;;;8.27;4.78;;;22.30;51.60;;;;;;5002971;28;20026;-84
2023/09/15 10:37:34;;;;;;;4.28;3.80;;;22.10;52.10;;;;;;5010072;28;20529;-84
2023/09/15 10:40:00;;;;;;;6.07;4.50;;;22.20;52.10;;;;;;5022175;28;20036;-85
2023/09/15 10:42:26;;;;;;;5.00;4.50;;;22.10;52.70;;;;;;5020418;28;20026;-84
2023/09/15 10:44:52;;;;;;;7.97;5.30;;;22.10;53.00;;;;;;5019371;28;20049;-84
2023/09/15 10:47:20;;;;;;;8.00;5.10;;;22.30;52.60;;;;;;5004597;28;20076;-84
2023/09/15 10:49:53;;;;;;;5.93;3.95;;;22.60;52.40;;;;;;5030598;28;20028;-82
2023/09/15 10:52:32;;;;;;;6.32;4.25;;;22.50;51.70;;;;;;5022217;28;20029;-81
2023/09/15 10:54:58;;;;;;;6.60;5.43;;;22.40;52.30;;;;;;5026392;28;20506;-84
2023/09/15 10:57:25;;;;;;;7.07;4.30;;;22.50;52.50;;;;;;5013147;28;20018;-83
2023/09/15 10:59:55;;;;;;;5.03;4.20;;;22.50;52.10;;;;;;4999712;28;20030;-84
2023/09/15 11:02:21;;;;;;;4.85;4.35;;;22.20;52.60;;;;;;5016957;28;20034;-84
2023/09/15 11:04:48;;;;;;;4.80;4.22;;;22.00;53.60;;;;;;5017161;28;20046;-85
2023/09/15 11:07:16;;;;;;;6.00;4.95;;;22.00;53.40;;;;;;5011150;28;20030;-82
2023/09/15 11:09:42;;;;;;;5.38;4.35;;;22.00;53.50;;;;;;5016205;28;20038;-84
2023/09/15 11:12:10;;;;;;;6.43;4.63;;;21.90;53.60;;;;;;5015458;28;20028;-82
2023/09/15 11:14:36;;;;;;;7.03;5.05;;;21.80;54.40;;;;;;5014712;28;20021;-84
2023/09/15 11:17:03;;;;;;;12.73;6.70;;;21.80;54.30;;;;;;5030176;28;20061;-85
2023/09/15 11:19:32;;;;;;;10.60;4.80;;;21.90;54.40;;;;;;5017153;28;20021;-84
2023/09/15 11:22:03;;;;;;;7.32;4.82;;;22.00;54.50;;;;;;5014651;28;20395;-84
2023/09/15 11:24:29;;;;;;;7.07;4.65;;;22.10;54.30;;;;;;5015183;28;20034;-83
2023/09/15 11:26:55;;;;;;;6.45;4.32;;;22.00;54.00;;;;;;5017060;28;20394;-83
2023/09/15 11:29:25;;;;;;;8.18;5.05;;;21.80;54.20;;;;;;5016195;28;20022;-85
2023/09/15 11:31:52;;;;;;;5.45;4.78;;;21.50;55.00;;;;;;5025960;28;20085;-82
2023/09/15 11:34:19;;;;;;;;;;;21.50;55.30;;;;;;5026482;28;20022;-86
2023/09/15 11:36:47;;;;;;;5.03;4.38;;;21.50;55.10;;;;;;5027327;28;20340;-83
2023/09/15 11:39:15;;;;;;;9.35;5.72;;;21.60;54.90;;;;;;5010002;28;20475;-85
2023/09/15 11:41:53;;;;;;;;;;;21.60;55.20;;;;;;5016655;28;20189;-83
2023/09/15 11:44:25;;;;;;;10.68;7.00;;;21.70;55.80;;;;;;5020815;28;19917;-83
2023/09/15 11:46:55;;;;;;;5.65;4.75;;;21.80;55.20;;;;;;5028176;28;20018;-83
2023/09/15 11:49:22;;;;;;;9.45;5.35;;;22.00;53.90;;;;;;5017125;28;20029;-82
2023/09/15 11:51:48;;;;;;;;;;;22.00;54.30;;;;;;5028712;28;20467;-81
2023/09/15 11:54:15;;;;;;;6.28;5.18;;;22.10;54.20;;;;;;5011010;28;19951;-80
2023/09/15 11:56:42;;;;;;;12.05;5.75;;;22.10;53.60;;;;;;5024244;28;20475;-80
2023/09/15 11:59:09;;;;;;;12.93;5.15;;;22.10;53.90;;;;;;5016039;28;20022;-83
2023/09/15 12:01:36;;;;;;;6.90;5.35;;;22.00;53.90;;;;;;5024852;28;20045;-84
2023/09/15 12:04:03;;;;;;;6.97;6.05;;;22.00;53.80;;;;;;5024538;28;20029;-83
2023/09/15 12:06:32;;;;;;;9.57;6.72;;;21.90;54.20;;;;;;5026049;28;20038;-86
2023/09/15 12:08:58;;;;;;;14.68;6.03;;;21.90;53.90;;;;;;5037211;28;20029;-86
2023/09/15 12:11:24;;;;;;;8.63;5.80;;;21.90;53.80;;;;;;5015950;28;20049;-86
2023/09/15 12:13:54;;;;;;;10.15;5.82;;;22.00;53.80;;;;;;5030914;28;20022;-87
2023/09/15 12:16:28;;;;;;;18.13;6.05;;;22.00;53.60;;;;;;5034111;28;20026;-85
2023/09/15 12:18:55;;;;;;;8.55;5.65;;;22.00;53.80;;;;;;5035185;28;20032;-87
2023/09/15 12:21:24;;;;;;;;;;;22.00;53.60;;;;;;5022385;28;20511;-86
2023/09/15 12:23:54;;;;;;;7.80;5.45;;;22.00;53.70;;;;;;5018911;28;20286;-86
2023/09/15 12:26:27;;;;;;;40.55;9.15;;;21.90;53.30;;;;;;5015254;28;20482;-86
2023/09/15 12:28:55;;;;;;;14.18;5.78;;;21.90;54.20;;;;;;5005937;28;20029;-80
2023/09/15 12:31:21;;;;;;;8.10;5.35;;;21.90;54.20;;;;;;5022572;28;20496;-81
2023/09/15 12:33:55;;;;;;;36.45;8.75;;;22.00;54.10;;;;;;5019370;28;20065;-81
2023/09/15 12:36:22;;;;;;;32.78;8.63;;;22.20;54.50;;;;;;5028383;28;20072;-84